sensor_id;sensor_type;location;lat;lon;timestamp;pressure;altitude;pressure_sealevel;temperature;humidity
66742;BME280;53654;54.152;19.432;2024-03-25T00:02:22;99944.14;;;5.35;81.09
66742;BME280;53654;54.152;19.432;2024-03-25T00:04:50;99943.10;;;5.39;80.96
66742;BME280;53654;54.152;19.432;2024-03-25T00:07:17;99943.96;;;5.41;81.07
66742;BME280;53654;54.152;19.432;2024-03-25T00:09:45;99940.67;;;5.42;81.00
66742;BME280;53654;54.152;19.432;2024-03-25T00:12:13;99936.52;;;5.44;80.93
66742;BME280;53654;54.152;19.432;2024-03-25T00:14:41;99932.02;;;5.44;80.98
66742;BME280;53654;54.152;19.432;2024-03-25T00:17:09;99932.20;;;5.45;81.01
66742;BME280;53654;54.152;19.432;2024-03-25T00:19:39;99932.20;;;5.45;80.82
66742;BME280;53654;54.152;19.432;2024-03-25T00:22:06;99926.84;;;5.44;81.09
66742;BME280;53654;54.152;19.432;2024-03-25T00:24:34;99929.09;;;5.43;80.97
66742;BME280;53654;54.152;19.432;2024-03-25T00:27:03;99928.56;;;5.44;81.02
66742;BME280;53654;54.152;19.432;2024-03-25T00:29:31;99927.18;;;5.45;81.02
66742;BME280;53654;54.152;19.432;2024-03-25T00:31:59;99925.62;;;5.49;81.12
66742;BME280;53654;54.152;19.432;2024-03-25T00:34:27;99923.89;;;5.51;80.95
66742;BME280;53654;54.152;19.432;2024-03-25T00:36:55;99924.41;;;5.53;80.92
66742;BME280;53654;54.152;19.432;2024-03-25T00:39:23;99922.15;;;5.55;80.70
66742;BME280;53654;54.152;19.432;2024-03-25T00:41:51;99922.15;;;5.57;80.67
66742;BME280;53654;54.152;19.432;2024-03-25T00:44:19;99923.53;;;5.58;80.64
66742;BME280;53654;54.152;19.432;2024-03-25T00:46:47;99922.48;;;5.59;80.69
66742;BME280;53654;54.152;19.432;2024-03-25T00:49:15;99922.84;;;5.58;80.58
66742;BME280;53654;54.152;19.432;2024-03-25T00:51:43;99920.08;;;5.56;80.65
66742;BME280;53654;54.152;19.432;2024-03-25T00:54:11;99919.39;;;5.54;80.85
66742;BME280;53654;54.152;19.432;2024-03-25T00:56:39;99916.27;;;5.51;80.93
66742;BME280;53654;54.152;19.432;2024-03-25T00:59:07;99915.92;;;5.51;80.95
66742;BME280;53654;54.152;19.432;2024-03-25T01:01:35;99919.39;;;5.49;81.04
66742;BME280;53654;54.152;19.432;2024-03-25T01:04:06;99916.97;;;5.50;80.98
66742;BME280;53654;54.152;19.432;2024-03-25T01:06:34;99915.23;;;5.50;81.21
66742;BME280;53654;54.152;19.432;2024-03-25T01:09:02;99919.39;;;5.51;81.23
66742;BME280;53654;54.152;19.432;2024-03-25T01:11:30;99917.65;;;5.52;81.27
66742;BME280;53654;54.152;19.432;2024-03-25T01:13:58;99915.05;;;5.53;81.28
66742;BME280;53654;54.152;19.432;2024-03-25T01:16:26;99917.30;;;5.55;81.36
66742;BME280;53654;54.152;19.432;2024-03-25T01:18:54;99916.27;;;5.54;81.32
66742;BME280;53654;54.152;19.432;2024-03-25T01:21:22;99915.75;;;5.54;81.34
66742;BME280;53654;54.152;19.432;2024-03-25T01:23:50;99913.85;;;5.56;81.41
66742;BME280;53654;54.152;19.432;2024-03-25T01:26:18;99913.50;;;5.57;81.44
66742;BME280;53654;54.152;19.432;2024-03-25T01:28:46;99914.88;;;5.60;81.42
66742;BME280;53654;54.152;19.432;2024-03-25T01:31:14;99912.98;;;5.61;81.30
66742;BME280;53654;54.152;19.432;2024-03-25T01:33:43;99910.04;;;5.62;81.24
66742;BME280;53654;54.152;19.432;2024-03-25T01:36:11;99908.64;;;5.61;81.29
66742;BME280;53654;54.152;19.432;2024-03-25T01:38:44;99912.11;;;5.58;81.34
66742;BME280;53654;54.152;19.432;2024-03-25T01:41:13;99911.07;;;5.59;81.54
66742;BME280;53654;54.152;19.432;2024-03-25T01:43:44;99913.67;;;5.58;81.48
66742;BME280;53654;54.152;19.432;2024-03-25T01:46:12;99916.44;;;5.57;81.56
66742;BME280;53654;54.152;19.432;2024-03-25T01:48:40;99916.79;;;5.57;81.63
66742;BME280;53654;54.152;19.432;2024-03-25T01:51:08;99916.61;;;5.57;81.64
66742;BME280;53654;54.152;19.432;2024-03-25T01:53:37;99910.73;;;5.57;81.72
66742;BME280;53654;54.152;19.432;2024-03-25T01:56:06;99910.04;;;5.59;81.84
66742;BME280;53654;54.152;19.432;2024-03-25T01:58:34;99910.38;;;5.59;81.65
66742;BME280;53654;54.152;19.432;2024-03-25T02:01:02;99909.69;;;5.57;81.70
66742;BME280;53654;54.152;19.432;2024-03-25T02:03:31;99910.56;;;5.57;81.89
66742;BME280;53654;54.152;19.432;2024-03-25T02:06:06;99908.83;;;5.55;81.89
66742;BME280;53654;54.152;19.432;2024-03-25T02:08:37;99907.27;;;5.52;81.98
66742;BME280;53654;54.152;19.432;2024-03-25T02:11:06;99906.94;;;5.49;82.10
66742;BME280;53654;54.152;19.432;2024-03-25T02:13:35;99907.11;;;5.46;82.09
66742;BME280;53654;54.152;19.432;2024-03-25T02:16:04;99908.15;;;5.44;82.29
66742;BME280;53654;54.152;19.432;2024-03-25T02:18:32;99907.98;;;5.44;82.45
66742;BME280;53654;54.152;19.432;2024-03-25T02:21:00;99907.80;;;5.42;82.46
66742;BME280;53654;54.152;19.432;2024-03-25T02:23:28;99910.23;;;5.44;82.40
66742;BME280;53654;54.152;19.432;2024-03-25T02:25:56;99910.57;;;5.45;82.36
66742;BME280;53654;54.152;19.432;2024-03-25T02:28:24;99911.60;;;5.46;82.29
66742;BME280;53654;54.152;19.432;2024-03-25T02:30:52;99911.79;;;5.47;82.23
66742;BME280;53654;54.152;19.432;2024-03-25T02:33:20;99912.48;;;5.50;82.25
66742;BME280;53654;54.152;19.432;2024-03-25T02:35:48;99914.55;;;5.54;82.14
66742;BME280;53654;54.152;19.432;2024-03-25T02:38:16;99917.30;;;5.55;81.99
66742;BME280;53654;54.152;19.432;2024-03-25T02:40:46;99914.55;;;5.53;82.02
66742;BME280;53654;54.152;19.432;2024-03-25T02:43:14;99916.79;;;5.54;82.10
66742;BME280;53654;54.152;19.432;2024-03-25T02:45:42;99917.48;;;5.56;81.97
66742;BME280;53654;54.152;19.432;2024-03-25T02:48:10;99920.76;;;5.59;81.89
66742;BME280;53654;54.152;19.432;2024-03-25T02:50:38;99921.28;;;5.60;81.82
66742;BME280;53654;54.152;19.432;2024-03-25T02:53:06;99924.75;;;5.57;81.62
66742;BME280;53654;54.152;19.432;2024-03-25T02:55:34;99927.52;;;5.57;81.71
66742;BME280;53654;54.152;19.432;2024-03-25T02:58:02;99927.52;;;5.55;81.57
66742;BME280;53654;54.152;19.432;2024-03-25T03:00:30;99928.73;;;5.57;81.81
66742;BME280;53654;54.152;19.432;2024-03-25T03:02:57;99928.89;;;5.60;81.73
66742;BME280;53654;54.152;19.432;2024-03-25T03:05:26;99929.23;;;5.62;81.78
66742;BME280;53654;54.152;19.432;2024-03-25T03:07:53;99924.05;;;5.63;81.59
66742;BME280;53654;54.152;19.432;2024-03-25T03:10:22;99930.45;;;5.63;81.69
66742;BME280;53654;54.152;19.432;2024-03-25T03:12:50;99927.34;;;5.62;81.60
66742;BME280;53654;54.152;19.432;2024-03-25T03:15:17;99927.16;;;5.63;81.56
66742;BME280;53654;54.152;19.432;2024-03-25T03:17:45;99929.92;;;5.66;81.51
66742;BME280;53654;54.152;19.432;2024-03-25T03:20:13;99926.98;;;5.65;81.46
66742;BME280;53654;54.152;19.432;2024-03-25T03:22:41;99926.48;;;5.63;81.37
66742;BME280;53654;54.152;19.432;2024-03-25T03:25:09;99928.54;;;5.63;81.29
66742;BME280;53654;54.152;19.432;2024-03-25T03:27:37;99928.02;;;5.64;81.31
66742;BME280;53654;54.152;19.432;2024-03-25T03:30:06;99927.50;;;5.65;81.33
66742;BME280;53654;54.152;19.432;2024-03-25T03:32:34;99929.92;;;5.66;81.34
66742;BME280;53654;54.152;19.432;2024-03-25T03:35:02;99934.77;;;5.65;81.36
66742;BME280;53654;54.152;19.432;2024-03-25T03:37:30;99937.37;;;5.64;81.17
66742;BME280;53654;54.152;19.432;2024-03-25T03:39:58;99940.30;;;5.64;81.30
66742;BME280;53654;54.152;19.432;2024-03-25T03:42:26;99939.62;;;5.64;81.37
66742;BME280;53654;54.152;19.432;2024-03-25T03:44:54;99939.61;;;5.66;81.23
66742;BME280;53654;54.152;19.432;2024-03-25T03:47:23;99943.25;;;5.65;81.28
66742;BME280;53654;54.152;19.432;2024-03-25T03:49:51;99943.77;;;5.64;81.41
66742;BME280;53654;54.152;19.432;2024-03-25T03:52:18;99942.20;;;5.66;81.31
66742;BME280;53654;54.152;19.432;2024-03-25T03:54:47;99942.04;;;5.66;81.35
66742;BME280;53654;54.152;19.432;2024-03-25T03:57:15;99944.63;;;5.67;81.43
66742;BME280;53654;54.152;19.432;2024-03-25T03:59:42;99942.39;;;5.65;81.30
66742;BME280;53654;54.152;19.432;2024-03-25T04:02:10;99948.44;;;5.66;81.46
66742;BME280;53654;54.152;19.432;2024-03-25T04:04:38;99946.88;;;5.68;81.30
66742;BME280;53654;54.152;19.432;2024-03-25T04:07:06;99946.88;;;5.71;81.46
66742;BME280;53654;54.152;19.432;2024-03-25T04:09:34;99950.33;;;5.75;81.34
66742;BME280;53654;54.152;19.432;2024-03-25T04:12:02;99950.67;;;5.78;81.22
66742;BME280;53654;54.152;19.432;2024-03-25T04:14:31;99949.28;;;5.79;81.00
66742;BME280;53654;54.152;19.432;2024-03-25T04:16:59;99948.94;;;5.76;81.15
66742;BME280;53654;54.152;19.432;2024-03-25T04:19:27;99953.28;;;5.71;80.72
66742;BME280;53654;54.152;19.432;2024-03-25T04:21:55;99953.80;;;5.68;81.08
66742;BME280;53654;54.152;19.432;2024-03-25T04:24:23;99957.79;;;5.65;81.00
66742;BME280;53654;54.152;19.432;2024-03-25T04:26:52;99957.44;;;5.62;81.22
66742;BME280;53654;54.152;19.432;2024-03-25T04:29:20;99958.48;;;5.61;81.26
66742;BME280;53654;54.152;19.432;2024-03-25T04:31:48;99961.25;;;5.59;81.17
66742;BME280;53654;54.152;19.432;2024-03-25T04:34:16;99965.23;;;5.56;81.22
66742;BME280;53654;54.152;19.432;2024-03-25T04:36:44;99967.48;;;5.53;81.37
66742;BME280;53654;54.152;19.432;2024-03-25T04:39:12;99964.54;;;5.50;81.50
66742;BME280;53654;54.152;19.432;2024-03-25T04:41:40;99968.87;;;5.51;81.67
66742;BME280;53654;54.152;19.432;2024-03-25T04:44:08;99971.80;;;5.52;81.81
66742;BME280;53654;54.152;19.432;2024-03-25T04:46:36;99974.06;;;5.52;81.88
66742;BME280;53654;54.152;19.432;2024-03-25T04:49:04;99984.09;;;5.54;81.94
66742;BME280;53654;54.152;19.432;2024-03-25T04:51:32;99984.43;;;5.55;81.91
66742;BME280;53654;54.152;19.432;2024-03-25T04:54:00;99984.60;;;5.57;81.90
66742;BME280;53654;54.152;19.432;2024-03-25T04:56:28;99988.76;;;5.60;81.78
66742;BME280;53654;54.152;19.432;2024-03-25T04:58:56;99986.33;;;5.64;81.88
66742;BME280;53654;54.152;19.432;2024-03-25T05:01:28;99990.48;;;5.68;81.70
66742;BME280;53654;54.152;19.432;2024-03-25T05:03:56;99990.14;;;5.68;81.61
66742;BME280;53654;54.152;19.432;2024-03-25T05:06:23;99998.45;;;5.69;81.57
66742;BME280;53654;54.152;19.432;2024-03-25T05:08:51;99999.13;;;5.71;81.55
66742;BME280;53654;54.152;19.432;2024-03-25T05:11:19;100000.17;;;5.72;81.41
66742;BME280;53654;54.152;19.432;2024-03-25T05:13:48;100002.77;;;5.76;81.40
66742;BME280;53654;54.152;19.432;2024-03-25T05:16:15;100004.50;;;5.78;81.29
66742;BME280;53654;54.152;19.432;2024-03-25T05:18:43;100002.23;;;5.81;81.28
66742;BME280;53654;54.152;19.432;2024-03-25T05:21:12;100002.77;;;5.82;81.21
66742;BME280;53654;54.152;19.432;2024-03-25T05:23:39;99999.13;;;5.83;80.98
66742;BME280;53654;54.152;19.432;2024-03-25T05:26:08;99999.81;;;5.81;81.01
66742;BME280;53654;54.152;19.432;2024-03-25T05:28:36;100000.34;;;5.79;80.97
66742;BME280;53654;54.152;19.432;2024-03-25T05:31:10;100001.90;;;5.78;81.17
66742;BME280;53654;54.152;19.432;2024-03-25T05:33:38;100005.88;;;5.81;81.15
66742;BME280;53654;54.152;19.432;2024-03-25T05:36:06;100007.95;;;5.84;81.28
66742;BME280;53654;54.152;19.432;2024-03-25T05:38:34;100006.56;;;5.84;81.13
66742;BME280;53654;54.152;19.432;2024-03-25T05:41:02;100010.89;;;5.84;80.98
66742;BME280;53654;54.152;19.432;2024-03-25T05:43:30;100011.93;;;5.86;81.16
66742;BME280;53654;54.152;19.432;2024-03-25T05:45:58;100019.73;;;5.89;81.02
66742;BME280;53654;54.152;19.432;2024-03-25T05:48:26;100019.92;;;5.90;81.05
66742;BME280;53654;54.152;19.432;2024-03-25T05:51:02;100023.02;;;5.94;80.91
66742;BME280;53654;54.152;19.432;2024-03-25T05:53:33;100023.02;;;5.98;81.04
66742;BME280;53654;54.152;19.432;2024-03-25T05:56:01;100023.54;;;6.02;80.81
66742;BME280;53654;54.152;19.432;2024-03-25T05:58:29;100024.23;;;6.05;80.89
66742;BME280;53654;54.152;19.432;2024-03-25T06:00:57;100023.88;;;6.09;80.92
66742;BME280;53654;54.152;19.432;2024-03-25T06:03:25;100027.16;;;6.13;80.88
66742;BME280;53654;54.152;19.432;2024-03-25T06:05:53;100026.98;;;6.16;80.83
66742;BME280;53654;54.152;19.432;2024-03-25T06:08:21;100033.38;;;6.20;80.78
66742;BME280;53654;54.152;19.432;2024-03-25T06:10:53;100037.00;;;6.24;80.51
66742;BME280;53654;54.152;19.432;2024-03-25T06:13:20;100036.30;;;6.31;80.54
66742;BME280;53654;54.152;19.432;2024-03-25T06:15:48;100036.80;;;6.36;80.37
66742;BME280;53654;54.152;19.432;2024-03-25T06:18:16;100040.42;;;6.41;80.30
66742;BME280;53654;54.152;19.432;2024-03-25T06:20:45;100041.80;;;6.46;79.92
66742;BME280;53654;54.152;19.432;2024-03-25T06:23:42;100045.95;;;6.46;79.43
66742;BME280;53654;54.152;19.432;2024-03-25T06:26:10;100047.70;;;6.45;79.33
66742;BME280;53654;54.152;19.432;2024-03-25T06:28:39;100050.97;;;6.51;79.07
66742;BME280;53654;54.152;19.432;2024-03-25T06:31:07;100055.98;;;6.57;79.13
66742;BME280;53654;54.152;19.432;2024-03-25T06:33:53;100053.35;;;6.62;78.99
66742;BME280;53654;54.152;19.432;2024-03-25T06:36:41;100056.79;;;6.71;78.92
66742;BME280;53654;54.152;19.432;2024-03-25T06:39:09;100063.51;;;6.82;78.76
66742;BME280;53654;54.152;19.432;2024-03-25T06:41:37;100065.36;;;6.93;78.58
66742;BME280;53654;54.152;19.432;2024-03-25T06:44:05;100064.61;;;7.08;78.39
66742;BME280;53654;54.152;19.432;2024-03-25T06:46:33;100067.83;;;7.19;77.62
66742;BME280;53654;54.152;19.432;2024-03-25T06:49:01;100069.33;;;7.31;77.13
66742;BME280;53654;54.152;19.432;2024-03-25T06:51:29;100073.27;;;7.39;76.62
66742;BME280;53654;54.152;19.432;2024-03-25T06:53:59;100070.42;;;7.48;76.37
66742;BME280;53654;54.152;19.432;2024-03-25T06:56:27;100072.95;;;7.61;75.69
66742;BME280;53654;54.152;19.432;2024-03-25T06:58:55;100075.85;;;7.69;75.10
66742;BME280;53654;54.152;19.432;2024-03-25T07:01:22;100083.98;;;7.72;74.71
66742;BME280;53654;54.152;19.432;2024-03-25T07:03:50;100083.27;;;7.72;74.97
66742;BME280;53654;54.152;19.432;2024-03-25T07:06:19;100089.69;;;7.74;74.83
66742;BME280;53654;54.152;19.432;2024-03-25T07:08:47;100087.48;;;7.69;74.75
66742;BME280;53654;54.152;19.432;2024-03-25T07:11:15;100086.77;;;7.68;74.61
66742;BME280;53654;54.152;19.432;2024-03-25T07:13:43;100091.33;;;7.63;74.51
66742;BME280;53654;54.152;19.432;2024-03-25T07:16:11;100094.29;;;7.63;74.91
66742;BME280;53654;54.152;19.432;2024-03-25T07:18:39;100100.72;;;7.61;74.63
66742;BME280;53654;54.152;19.432;2024-03-25T07:21:07;100103.00;;;7.58;74.81
66742;BME280;53654;54.152;19.432;2024-03-25T07:23:35;100109.95;;;7.58;75.11
66742;BME280;53654;54.152;19.432;2024-03-25T07:26:03;100111.66;;;7.59;75.18
66742;BME280;53654;54.152;19.432;2024-03-25T07:28:31;100115.48;;;7.59;75.20
66742;BME280;53654;54.152;19.432;2024-03-25T07:30:59;100116.02;;;7.59;75.12
66742;BME280;53654;54.152;19.432;2024-03-25T07:33:27;100121.37;;;7.62;75.26
66742;BME280;53654;54.152;19.432;2024-03-25T07:35:56;100122.39;;;7.66;75.20
66742;BME280;53654;54.152;19.432;2024-03-25T07:38:24;100122.36;;;7.70;75.21
66742;BME280;53654;54.152;19.432;2024-03-25T07:40:52;100127.91;;;7.70;75.43
66742;BME280;53654;54.152;19.432;2024-03-25T07:43:20;100131.53;;;7.74;75.50
66742;BME280;53654;54.152;19.432;2024-03-25T07:45:48;100128.41;;;7.74;75.20
66742;BME280;53654;54.152;19.432;2024-03-25T07:48:16;100132.42;;;7.72;75.24
66742;BME280;53654;54.152;19.432;2024-03-25T07:50:44;100132.23;;;7.72;75.30
66742;BME280;53654;54.152;19.432;2024-03-25T07:53:12;100135.85;;;7.76;75.70
66742;BME280;53654;54.152;19.432;2024-03-25T07:55:40;100132.70;;;7.80;75.56
66742;BME280;53654;54.152;19.432;2024-03-25T07:58:08;100133.23;;;7.81;75.18
66742;BME280;53654;54.152;19.432;2024-03-25T08:00:36;100130.26;;;7.83;75.36
66742;BME280;53654;54.152;19.432;2024-03-25T08:03:04;100136.66;;;7.85;75.27
66742;BME280;53654;54.152;19.432;2024-03-25T08:05:32;100131.63;;;7.85;75.13
66742;BME280;53654;54.152;19.432;2024-03-25T08:08:00;100131.10;;;7.87;75.21
66742;BME280;53654;54.152;19.432;2024-03-25T08:10:29;100131.42;;;7.89;75.04
66742;BME280;53654;54.152;19.432;2024-03-25T08:12:57;100133.86;;;7.89;74.59
66742;BME280;53654;54.152;19.432;2024-03-25T08:15:25;100136.83;;;7.86;74.35
66742;BME280;53654;54.152;19.432;2024-03-25T08:17:54;100135.08;;;7.89;74.74
66742;BME280;53654;54.152;19.432;2024-03-25T08:20:22;100135.73;;;7.95;75.00
66742;BME280;53654;54.152;19.432;2024-03-25T08:22:49;100136.20;;;8.02;74.90
66742;BME280;53654;54.152;19.432;2024-03-25T08:25:18;100136.70;;;8.03;74.41
66742;BME280;53654;54.152;19.432;2024-03-25T08:27:45;100134.27;;;8.04;74.31
66742;BME280;53654;54.152;19.432;2024-03-25T08:30:14;100133.05;;;8.04;74.14
66742;BME280;53654;54.152;19.432;2024-03-25T08:32:42;100132.52;;;8.05;74.26
66742;BME280;53654;54.152;19.432;2024-03-25T08:35:10;100136.82;;;8.10;74.24
66742;BME280;53654;54.152;19.432;2024-03-25T08:37:38;100139.91;;;8.16;74.36
66742;BME280;53654;54.152;19.432;2024-03-25T08:40:07;100133.10;;;8.19;74.11
66742;BME280;53654;54.152;19.432;2024-03-25T08:42:35;100137.73;;;8.25;73.69
66742;BME280;53654;54.152;19.432;2024-03-25T08:45:04;100143.48;;;8.25;73.43
66742;BME280;53654;54.152;19.432;2024-03-25T08:47:32;100144.89;;;8.21;73.37
66742;BME280;53654;54.152;19.432;2024-03-25T08:50:00;100145.62;;;8.17;73.60
66742;BME280;53654;54.152;19.432;2024-03-25T08:52:28;100144.39;;;8.20;73.80
66742;BME280;53654;54.152;19.432;2024-03-25T08:54:56;100148.34;;;8.26;73.99
66742;BME280;53654;54.152;19.432;2024-03-25T08:57:24;100146.73;;;8.31;73.75
66742;BME280;53654;54.152;19.432;2024-03-25T08:59:52;100145.65;;;8.39;73.98
66742;BME280;53654;54.152;19.432;2024-03-25T09:02:20;100146.92;;;8.50;74.15
66742;BME280;53654;54.152;19.432;2024-03-25T09:04:48;100141.95;;;8.61;73.69
66742;BME280;53654;54.152;19.432;2024-03-25T09:07:16;100144.45;;;8.71;73.32
66742;BME280;53654;54.152;19.432;2024-03-25T09:09:44;100148.89;;;8.80;72.58
66742;BME280;53654;54.152;19.432;2024-03-25T09:12:30;100151.77;;;8.86;72.20
66742;BME280;53654;54.152;19.432;2024-03-25T09:14:59;100156.23;;;8.91;71.69
66742;BME280;53654;54.152;19.432;2024-03-25T09:17:26;100153.56;;;8.97;71.74
66742;BME280;53654;54.152;19.432;2024-03-25T09:19:54;100152.61;;;9.03;71.34
66742;BME280;53654;54.152;19.432;2024-03-25T09:22:22;100153.77;;;9.10;71.19
66742;BME280;53654;54.152;19.432;2024-03-25T09:24:50;100152.11;;;9.17;71.22
66742;BME280;53654;54.152;19.432;2024-03-25T09:27:18;100153.42;;;9.23;71.18
66742;BME280;53654;54.152;19.432;2024-03-25T09:29:46;100155.58;;;9.32;70.85
66742;BME280;53654;54.152;19.432;2024-03-25T09:32:16;100159.33;;;9.38;70.33
66742;BME280;53654;54.152;19.432;2024-03-25T09:34:44;100159.02;;;9.48;70.31
66742;BME280;53654;54.152;19.432;2024-03-25T09:37:15;100160.79;;;9.59;69.60
66742;BME280;53654;54.152;19.432;2024-03-25T09:39:43;100164.64;;;9.70;69.21
66742;BME280;53654;54.152;19.432;2024-03-25T09:42:14;100167.23;;;9.71;68.16
66742;BME280;53654;54.152;19.432;2024-03-25T09:44:43;100170.02;;;9.71;67.88
66742;BME280;53654;54.152;19.432;2024-03-25T09:47:11;100171.08;;;9.71;67.48
66742;BME280;53654;54.152;19.432;2024-03-25T09:49:40;100169.50;;;9.71;67.46
66742;BME280;53654;54.152;19.432;2024-03-25T09:52:08;100166.80;;;9.77;67.80
66742;BME280;53654;54.152;19.432;2024-03-25T09:54:36;100175.21;;;9.86;68.62
66742;BME280;53654;54.152;19.432;2024-03-25T09:57:05;100171.98;;;9.92;67.95
66742;BME280;53654;54.152;19.432;2024-03-25T09:59:33;100174.80;;;9.89;66.88
66742;BME280;53654;54.152;19.432;2024-03-25T10:02:02;100176.73;;;9.88;67.15
66742;BME280;53654;54.152;19.432;2024-03-25T10:04:31;100180.20;;;9.90;67.34
66742;BME280;53654;54.152;19.432;2024-03-25T10:07:00;100179.64;;;9.93;66.94
66742;BME280;53654;54.152;19.432;2024-03-25T10:09:28;100173.77;;;10.00;67.38
66742;BME280;53654;54.152;19.432;2024-03-25T10:11:56;100172.57;;;10.11;67.27
66742;BME280;53654;54.152;19.432;2024-03-25T10:14:24;100173.56;;;10.14;66.17
66742;BME280;53654;54.152;19.432;2024-03-25T10:16:52;100174.64;;;10.12;66.02
66742;BME280;53654;54.152;19.432;2024-03-25T10:19:20;100171.64;;;10.14;65.91
66742;BME280;53654;54.152;19.432;2024-03-25T10:21:48;100166.38;;;10.16;65.41
66742;BME280;53654;54.152;19.432;2024-03-25T10:24:16;100170.34;;;10.21;64.78
66742;BME280;53654;54.152;19.432;2024-03-25T10:26:44;100179.61;;;10.18;63.46
66742;BME280;53654;54.152;19.432;2024-03-25T10:29:12;100177.99;;;10.22;64.47
66742;BME280;53654;54.152;19.432;2024-03-25T10:31:40;100179.52;;;10.26;64.12
66742;BME280;53654;54.152;19.432;2024-03-25T10:34:08;100180.90;;;10.25;63.80
66742;BME280;53654;54.152;19.432;2024-03-25T10:36:36;100178.95;;;10.28;64.05
66742;BME280;53654;54.152;19.432;2024-03-25T10:39:05;100184.05;;;10.36;64.36
66742;BME280;53654;54.152;19.432;2024-03-25T10:41:35;100182.70;;;10.45;63.90
66742;BME280;53654;54.152;19.432;2024-03-25T10:44:06;100182.92;;;10.53;63.62
66742;BME280;53654;54.152;19.432;2024-03-25T10:46:35;100186.09;;;10.60;63.61
66742;BME280;53654;54.152;19.432;2024-03-25T10:49:21;100186.11;;;10.70;62.52
66742;BME280;53654;54.152;19.432;2024-03-25T10:51:55;100193.60;;;10.71;61.41
66742;BME280;53654;54.152;19.432;2024-03-25T10:54:25;100198.33;;;10.70;61.01
66742;BME280;53654;54.152;19.432;2024-03-25T10:56:53;100196.27;;;10.68;59.84
66742;BME280;53654;54.152;19.432;2024-03-25T10:59:22;100198.44;;;10.63;59.81
66742;BME280;53654;54.152;19.432;2024-03-25T11:01:53;100193.69;;;10.66;60.77
66742;BME280;53654;54.152;19.432;2024-03-25T11:04:21;100193.39;;;10.73;61.52
66742;BME280;53654;54.152;19.432;2024-03-25T11:06:50;100198.95;;;10.83;61.27
66742;BME280;53654;54.152;19.432;2024-03-25T11:09:24;100199.88;;;10.90;60.64
66742;BME280;53654;54.152;19.432;2024-03-25T11:11:55;100195.84;;;10.91;60.33
66742;BME280;53654;54.152;19.432;2024-03-25T11:14:26;100199.92;;;10.96;60.32
66742;BME280;53654;54.152;19.432;2024-03-25T11:16:55;100203.34;;;11.01;60.18
66742;BME280;53654;54.152;19.432;2024-03-25T11:19:27;100203.73;;;11.07;60.20
66742;BME280;53654;54.152;19.432;2024-03-25T11:22:10;100204.39;;;11.09;59.32
66742;BME280;53654;54.152;19.432;2024-03-25T11:24:43;100203.10;;;11.04;58.95
66742;BME280;53654;54.152;19.432;2024-03-25T11:27:11;100204.60;;;10.99;59.08
66742;BME280;53654;54.152;19.432;2024-03-25T11:29:39;100202.27;;;10.92;59.43
66742;BME280;53654;54.152;19.432;2024-03-25T11:32:08;100199.52;;;10.81;59.63
66742;BME280;53654;54.152;19.432;2024-03-25T11:34:36;100200.23;;;10.80;60.19
66742;BME280;53654;54.152;19.432;2024-03-25T11:37:04;100198.54;;;10.87;60.44
66742;BME280;53654;54.152;19.432;2024-03-25T11:39:32;100201.52;;;10.95;60.26
66742;BME280;53654;54.152;19.432;2024-03-25T11:42:00;100198.44;;;11.01;59.01
66742;BME280;53654;54.152;19.432;2024-03-25T11:44:30;100202.81;;;11.01;58.95
66742;BME280;53654;54.152;19.432;2024-03-25T11:46:58;100197.39;;;11.01;59.62
66742;BME280;53654;54.152;19.432;2024-03-25T11:49:26;100201.36;;;11.04;59.43
66742;BME280;53654;54.152;19.432;2024-03-25T11:51:54;100198.02;;;11.05;59.52
66742;BME280;53654;54.152;19.432;2024-03-25T11:54:27;100195.10;;;11.02;58.31
66742;BME280;53654;54.152;19.432;2024-03-25T11:56:56;100191.55;;;10.97;58.05
66742;BME280;53654;54.152;19.432;2024-03-25T11:59:24;100188.77;;;10.96;58.19
66742;BME280;53654;54.152;19.432;2024-03-25T12:01:52;100191.91;;;10.96;58.61
66742;BME280;53654;54.152;19.432;2024-03-25T12:04:20;100197.28;;;10.98;59.35
66742;BME280;53654;54.152;19.432;2024-03-25T12:06:54;100192.67;;;11.02;59.30
66742;BME280;53654;54.152;19.432;2024-03-25T12:09:24;100192.57;;;11.07;59.48
66742;BME280;53654;54.152;19.432;2024-03-25T12:12:10;100192.17;;;11.10;59.06
66742;BME280;53654;54.152;19.432;2024-03-25T12:14:39;100192.23;;;11.15;58.40
66742;BME280;53654;54.152;19.432;2024-03-25T12:17:07;100190.95;;;11.18;58.20
66742;BME280;53654;54.152;19.432;2024-03-25T12:19:36;100193.52;;;11.21;57.56
66742;BME280;53654;54.152;19.432;2024-03-25T12:22:04;100192.08;;;11.23;57.39
66742;BME280;53654;54.152;19.432;2024-03-25T12:24:32;100186.91;;;11.27;57.45
66742;BME280;53654;54.152;19.432;2024-03-25T12:27:00;100186.63;;;11.34;57.36
66742;BME280;53654;54.152;19.432;2024-03-25T12:29:29;100186.90;;;11.37;57.27
66742;BME280;53654;54.152;19.432;2024-03-25T12:31:57;100184.89;;;11.42;57.36
66742;BME280;53654;54.152;19.432;2024-03-25T12:34:25;100186.22;;;11.45;56.64
66742;BME280;53654;54.152;19.432;2024-03-25T12:37:03;100190.66;;;11.42;55.74
66742;BME280;53654;54.152;19.432;2024-03-25T12:39:34;100190.72;;;11.39;56.16
66742;BME280;53654;54.152;19.432;2024-03-25T12:42:04;100188.44;;;11.39;56.50
66742;BME280;53654;54.152;19.432;2024-03-25T12:44:32;100189.41;;;11.34;55.77
66742;BME280;53654;54.152;19.432;2024-03-25T12:47:00;100189.86;;;11.29;56.63
66742;BME280;53654;54.152;19.432;2024-03-25T12:49:28;100190.16;;;11.32;57.68
66742;BME280;53654;54.152;19.432;2024-03-25T12:51:57;100191.63;;;11.36;57.71
66742;BME280;53654;54.152;19.432;2024-03-25T12:54:26;100195.92;;;11.40;57.87
66742;BME280;53654;54.152;19.432;2024-03-25T12:56:54;100193.04;;;11.45;57.75
66742;BME280;53654;54.152;19.432;2024-03-25T12:59:23;100193.84;;;11.48;56.48
66742;BME280;53654;54.152;19.432;2024-03-25T13:01:51;100198.84;;;11.51;55.71